Time;durP1;ratioP1;P1;durP2;ratioP2;P2;SDS_P1;SDS_P2;PMS_P1;PMS_P2;Temp;Humidity;BMP_temperature;BMP_pressure;BME280_temperature;BME280_humidity;BME280_pressure;Samples;Min_cycle;Max_cycle;Signal;HPM_P1;HPM_P2
2022/05/31 00:00:32;;;;;;;2.40;2.20;;;;;;;4.80;100.00;92612.94;2090128;28;20111;-80
2022/05/31 00:01:33;;;;;;;4.18;2.08;;;;;;;4.62;100.00;92622.91;2090684;28;20021;-81
2022/05/31 00:02:34;;;;;;;3.10;2.35;;;;;;;4.62;100.00;92614.97;2092602;28;20037;-82
2022/05/31 00:03:35;;;;;;;4.57;2.30;;;;;;;4.52;100.00;92621.84;2113737;28;20023;-82
2022/05/31 00:04:36;;;;;;;5.82;2.30;;;;;;;4.48;100.00;92618.47;2115051;28;20023;-82
2022/05/31 00:05:37;;;;;;;3.45;2.05;;;;;;;4.79;100.00;92618.63;2098259;28;20066;-82
2022/05/31 00:06:39;;;;;;;3.97;2.22;;;;;;;4.66;100.00;92614.94;2106519;28;20032;-81
2022/05/31 00:07:41;;;;;;;3.20;1.92;;;;;;;4.62;100.00;92609.66;2098366;28;20098;-82
2022/05/31 00:08:42;;;;;;;3.85;2.58;;;;;;;4.41;100.00;92618.50;2107037;27;20024;-81
2022/05/31 00:09:44;;;;;;;3.17;2.30;;;;;;;4.56;100.00;92608.56;2114913;28;20068;-80
2022/05/31 00:10:46;;;;;;;3.78;2.22;;;;;;;4.51;100.00;92615.03;2106625;28;20556;-81
2022/05/31 00:11:48;;;;;;;4.03;2.25;;;;;;;4.47;100.00;92613.56;2098309;28;20087;-80
2022/05/31 00:12:50;;;;;;;4.35;2.50;;;;;;;4.54;100.00;92611.63;2106908;27;20032;-81
2022/05/31 00:13:51;;;;;;;3.42;2.60;;;;;;;4.38;100.00;92618.53;2123499;27;20024;-83
2022/05/31 00:14:53;;;;;;;4.70;2.47;;;;;;;4.42;100.00;92609.44;2115021;28;20027;-81
2022/05/31 00:15:54;;;;;;;4.18;2.42;;;;;;;4.53;100.00;92604.81;2106497;28;20045;-80
2022/05/31 00:16:54;;;;;;;3.00;2.40;;;;;;;4.50;100.00;92615.44;2106519;28;20028;-80
2022/05/31 00:17:56;;;;;;;2.80;2.28;;;;;;;4.48;100.00;92617.72;2106538;28;20361;-82
2022/05/31 00:18:57;;;;;;;2.67;2.10;;;;;;;4.38;100.00;92619.28;2106684;28;20596;-81
2022/05/31 00:19:59;;;;;;;7.13;2.50;;;;;;;4.43;100.00;92615.47;2115179;28;20113;-82
2022/05/31 00:21:01;;;;;;;4.30;2.28;;;;;;;4.45;100.00;92615.84;2115090;27;20020;-83
2022/05/31 00:22:14;;;;;;;4.00;2.28;;;;;;;4.53;100.00;92612.00;2115110;27;20114;-81
2022/05/31 00:23:15;;;;;;;4.85;2.22;;;;;;;4.43;100.00;92605.63;2114947;28;20024;-82
2022/05/31 00:24:19;;;;;;;6.30;2.20;;;;;;;4.41;100.00;92613.22;2106344;28;20020;-82
2022/05/31 00:25:21;;;;;;;3.30;2.35;;;;;;;4.31;100.00;92608.00;2098860;28;20028;-81
2022/05/31 00:26:22;;;;;;;2.35;2.03;;;;;;;4.43;100.00;92613.56;2106819;28;20028;-82
2022/05/31 00:27:24;;;;;;;3.20;2.33;;;;;;;4.36;100.00;92605.69;2114934;28;20081;-81
2022/05/31 00:28:25;;;;;;;4.28;2.42;;;;;;;4.26;100.00;92607.28;2106552;28;20016;-81
2022/05/31 00:29:27;;;;;;;2.95;2.30;;;;;;;4.31;100.00;92613.31;2106573;28;20119;-81
2022/05/31 00:30:28;;;;;;;4.63;2.42;;;;;;;4.20;100.00;92602.78;2123414;27;20107;-82
2022/05/31 00:31:29;;;;;;;5.65;2.70;;;;;;;4.21;100.00;92607.66;2123363;27;20019;-82
2022/05/31 00:32:34;;;;;;;3.80;2.42;;;;;;;4.24;100.00;92598.22;2106356;28;20051;-80
2022/05/31 00:33:35;;;;;;;4.55;2.35;;;;;;;4.23;100.00;92602.75;2106792;28;20504;-80
2022/05/31 00:34:43;;;;;;;3.65;2.20;;;;;;;4.33;100.00;92603.06;2098021;28;20047;-82
2022/05/31 00:35:48;;;;;;;3.80;2.33;;;;;;;4.30;100.00;92607.22;2091597;28;20029;-80
2022/05/31 00:36:51;;;;;;;3.80;2.72;;;;;;;4.27;100.00;92608.78;2099234;28;20082;-81
2022/05/31 00:37:54;;;;;;;2.88;2.28;;;;;;;4.24;100.00;92606.16;2114908;27;20814;-81
2022/05/31 00:38:55;;;;;;;3.80;2.63;;;;;;;4.28;100.00;92604.25;2114585;28;20388;-82
2022/05/31 00:39:58;;;;;;;2.80;2.17;;;;;;;4.27;100.00;92608.03;2098044;28;20097;-81
2022/05/31 00:41:26;;;;;;;3.05;2.47;;;;;;;4.46;100.00;92610.16;2098144;28;20111;-82
2022/05/31 00:42:27;;;;;;;7.93;2.55;;;;;;;4.19;100.00;92602.03;2105169;28;20031;-80
2022/05/31 00:43:27;;;;;;;4.38;2.67;;;;;;;4.37;100.00;92606.44;2098066;28;20465;-80
2022/05/31 00:44:30;;;;;;;2.75;2.25;;;;;;;4.07;100.00;92601.72;2097931;28;20024;-81
2022/05/31 00:45:57;;;;;;;3.17;2.45;;;;;;;4.04;100.00;92600.63;2090280;28;20024;-81
2022/05/31 00:47:02;;;;;;;3.10;2.25;;;;;;;3.97;100.00;92598.00;2096824;28;20504;-81
2022/05/31 00:48:08;;;;;;;4.18;2.45;;;;;;;4.04;100.00;92601.38;2090774;28;20071;-81
2022/05/31 00:49:12;;;;;;;3.40;2.63;;;;;;;4.00;100.00;92608.56;2091083;28;20029;-81
2022/05/31 00:50:34;;;;;;;4.13;2.50;;;;;;;4.03;100.00;92604.38;2107233;27;20027;-81
2022/05/31 00:51:41;;;;;;;4.97;2.63;;;;;;;4.00;100.00;92600.63;2109211;28;20035;-81
2022/05/31 00:52:47;;;;;;;3.53;2.50;;;;;;;3.93;100.00;92600.66;2095601;28;20025;-81
2022/05/31 00:53:54;;;;;;;4.70;2.25;;;;;;;3.89;100.00;92605.22;2097951;28;20024;-82
2022/05/31 00:55:11;;;;;;;3.63;2.30;;;;;;;3.96;100.00;92597.25;2091439;28;20537;-80
2022/05/31 00:56:17;;;;;;;5.47;2.60;;;;;;;3.97;100.00;92601.38;2093927;28;20084;-81
2022/05/31 00:57:19;;;;;;;3.08;2.38;;;;;;;3.89;100.00;92601.81;2090878;28;20031;-82
2022/05/31 00:58:30;;;;;;;3.28;2.38;;;;;;;3.83;100.00;92598.81;2102904;28;20028;-80
2022/05/31 00:59:37;;;;;;;4.22;2.47;;;;;;;4.02;100.00;92608.91;2099168;28;20074;-81
2022/05/31 01:00:41;;;;;;;2.53;2.22;;;;;;;3.97;100.00;92604.03;2101958;28;20031;-79
2022/05/31 01:01:47;;;;;;;4.28;2.38;;;;;;;3.94;100.00;92601.41;2106595;28;20069;-82
2022/05/31 01:02:50;;;;;;;12.75;2.85;;;;;;;3.95;100.00;92601.03;2106791;27;20023;-80
2022/05/31 01:03:54;;;;;;;3.83;2.40;;;;;;;3.90;100.00;92601.41;2106524;28;20020;-81
2022/05/31 01:04:59;;;;;;;6.38;2.55;;;;;;;4.00;100.00;92602.53;2106613;28;20418;-81
2022/05/31 01:06:03;;;;;;;2.92;2.50;;;;;;;3.90;100.00;92612.00;2106562;28;20028;-82
2022/05/31 01:07:06;;;;;;;3.05;2.38;;;;;;;3.83;100.00;92598.06;2106146;28;20104;-80
2022/05/31 01:08:07;;;;;;;2.88;2.45;;;;;;;3.94;100.00;92606.69;2106505;28;20020;-82
2022/05/31 01:09:09;;;;;;;2.50;2.30;;;;;;;4.00;100.00;92605.16;2106029;28;20555;-79
2022/05/31 01:10:13;;;;;;;4.90;2.53;;;;;;;3.88;100.00;92609.00;2098072;28;20028;-81
2022/05/31 01:11:20;;;;;;;5.80;2.70;;;;;;;3.81;100.00;92603.72;2106003;28;20062;-81
2022/05/31 01:12:22;;;;;;;5.50;2.40;;;;;;;3.77;100.00;92611.66;2090819;28;20017;-82
2022/05/31 01:13:23;;;;;;;3.85;2.33;;;;;;;3.74;100.00;92609.81;2089659;28;20096;-82
2022/05/31 01:14:26;;;;;;;5.47;2.85;;;;;;;3.58;100.00;92612.13;2106182;28;20016;-80
2022/05/31 01:15:27;;;;;;;3.70;2.55;;;;;;;3.56;100.00;92611.00;2106041;28;20400;-82
2022/05/31 01:16:28;;;;;;;2.78;2.33;;;;;;;3.66;100.00;92613.63;2106116;28;20143;-81
2022/05/31 01:17:29;;;;;;;4.32;2.50;;;;;;;3.74;100.00;92609.81;2106076;28;20035;-81
2022/05/31 01:18:32;;;;;;;6.38;2.58;;;;;;;3.70;100.00;92613.63;2089494;28;20017;-82
2022/05/31 01:20:53;;;;;;;5.03;2.22;;;;;;;3.74;100.00;92619.63;2114603;28;20031;-81
2022/05/31 01:21:55;;;;;;;4.05;2.17;;;;;;;3.76;100.00;92614.72;2107332;28;20032;-81
2022/05/31 01:23:01;;;;;;;5.00;2.42;;;;;;;3.67;100.00;92619.66;2097423;28;20025;-80
2022/05/31 01:24:12;;;;;;;5.65;2.22;;;;;;;3.67;100.00;92611.72;2106647;28;20493;-81
2022/05/31 01:25:22;;;;;;;3.03;2.30;;;;;;;3.64;100.00;92615.13;2114409;28;20058;-82
2022/05/31 01:26:46;;;;;;;2.88;2.17;;;;;;;3.77;100.00;92619.59;2115563;27;20038;-82
2022/05/31 01:27:56;;;;;;;2.63;2.08;;;;;;;3.65;100.00;92614.75;2100613;28;20056;-80
2022/05/31 01:29:26;;;;;;;4.15;2.30;;;;;;;3.50;100.00;92621.22;2091830;28;20473;-80
2022/05/31 01:30:31;;;;;;;3.22;2.40;;;;;;;3.49;100.00;92623.13;2110631;28;20019;-80
2022/05/31 01:31:57;;;;;;;3.28;2.28;;;;;;;3.48;100.00;92620.88;2114872;28;20026;-82
2022/05/31 01:33:07;;;;;;;3.17;2.33;;;;;;;3.42;100.00;92620.47;2106434;28;20032;-81
2022/05/31 01:34:22;;;;;;;4.47;2.40;;;;;;;3.41;100.00;92624.28;2103535;27;20511;-80
2022/05/31 01:35:33;;;;;;;6.53;2.38;;;;;;;3.32;100.00;92620.53;2105900;28;20058;-82
2022/05/31 01:36:40;;;;;;;;;;;;;;;3.38;100.00;92614.47;2101885;28;20098;-82
2022/05/31 01:37:49;;;;;;;5.13;2.40;;;;;;;3.47;100.00;92614.09;2099249;28;20450;-80
2022/05/31 01:39:21;;;;;;;2.72;2.33;;;;;;;3.36;100.00;92616.75;2099788;28;20078;-81
2022/05/31 01:40:50;;;;;;;3.75;2.45;;;;;;;3.68;100.00;92610.59;2106124;28;20770;-80
2022/05/31 01:42:00;;;;;;;4.85;2.70;;;;;;;3.56;100.00;92617.06;2092606;28;20509;-83
2022/05/31 01:43:03;;;;;;;2.53;2.00;;;;;;;3.51;100.00;92618.22;2093016;28;20607;-81
2022/05/31 01:44:10;;;;;;;2.85;2.35;;;;;;;3.67;100.00;92615.13;2089542;28;20731;-82
2022/05/31 01:45:20;;;;;;;4.90;2.35;;;;;;;3.60;100.00;92617.81;2094617;28;20431;-82
2022/05/31 01:46:28;;;;;;;7.10;2.63;;;;;;;3.49;100.00;92614.44;2108412;27;20388;-83
2022/05/31 01:47:29;;;;;;;4.20;2.28;;;;;;;3.52;100.00;92619.72;2106693;28;20095;-80
2022/05/31 01:48:34;;;;;;;5.07;2.90;;;;;;;3.48;100.00;92616.34;2097585;28;20443;-82
2022/05/31 01:49:39;;;;;;;3.78;2.53;;;;;;;3.40;100.00;92620.13;2106809;28;20024;-81
2022/05/31 01:50:41;;;;;;;5.30;2.78;;;;;;;3.41;100.00;92623.53;2106339;28;20024;-82
2022/05/31 01:51:42;;;;;;;3.22;2.20;;;;;;;3.41;100.00;92623.53;2106050;27;20022;-82
2022/05/31 01:52:46;;;;;;;4.00;2.58;;;;;;;3.27;100.00;92622.41;2114140;28;20030;-82
2022/05/31 01:53:48;;;;;;;5.47;2.80;;;;;;;3.41;100.00;92618.22;2114486;28;20073;-80
2022/05/31 01:54:50;;;;;;;3.65;2.40;;;;;;;3.40;100.00;92620.13;2105804;28;20020;-81
2022/05/31 01:55:51;;;;;;;5.43;2.60;;;;;;;3.40;100.00;92622.03;2097765;28;20032;-82
2022/05/31 01:56:57;;;;;;;3.05;2.38;;;;;;;3.46;100.00;92618.59;2097501;28;20043;-81
2022/05/31 01:58:02;;;;;;;3.28;2.50;;;;;;;3.47;100.00;92628.03;2098648;28;20028;-80
2022/05/31 01:59:04;;;;;;;2.53;2.30;;;;;;;3.52;100.00;92621.59;2097894;28;20039;-80
2022/05/31 02:00:10;;;;;;;5.15;2.35;;;;;;;3.52;100.00;92625.00;2103169;27;20080;-82
2022/05/31 02:01:11;;;;;;;3.95;2.35;;;;;;;3.60;100.00;92614.38;2121819;27;20026;-81
2022/05/31 02:02:15;;;;;;;3.53;2.58;;;;;;;3.51;100.00;92622.72;2105731;28;20025;-82
2022/05/31 02:03:19;;;;;;;2.40;2.17;;;;;;;3.45;100.00;92624.25;2097514;28;20021;-82
2022/05/31 02:04:20;;;;;;;4.72;2.55;;;;;;;3.42;100.00;92625.03;2089638;28;20518;-80
2022/05/31 02:05:22;;;;;;;4.10;2.65;;;;;;;3.33;100.00;92614.84;2097395;28;20112;-80
2022/05/31 02:06:28;;;;;;;5.72;2.63;;;;;;;3.36;100.00;92616.75;2097382;28;20139;-81
2022/05/31 02:07:30;;;;;;;3.17;2.28;;;;;;;3.23;100.00;92618.28;2104108;28;20085;-81
2022/05/31 02:08:33;;;;;;;5.13;2.60;;;;;;;3.43;100.00;92627.31;2103652;28;20028;-80
2022/05/31 02:09:34;;;;;;;2.40;2.20;;;;;;;3.36;100.00;92626.56;2104495;28;20028;-83
2022/05/31 02:10:36;;;;;;;2.47;2.10;;;;;;;3.17;100.00;92630.38;2097222;28;20020;-81
2022/05/31 02:13:30;;;;;;;;;;;;;;;3.17;100.00;92633.03;2148585;27;20109;-81
2022/05/31 02:14:31;;;;;;;5.18;2.45;;;;;;;3.27;100.00;92627.72;2130027;27;19997;-81
2022/05/31 02:15:33;;;;;;;2.35;2.13;;;;;;;3.14;100.00;92629.25;2113115;28;20092;-81
2022/05/31 02:16:34;;;;;;;3.45;2.47;;;;;;;3.14;100.00;92634.53;2130015;27;20042;-80
2022/05/31 02:17:35;;;;;;;3.35;2.50;;;;;;;3.15;100.00;92628.09;2113085;27;20060;-81
2022/05/31 02:19:57;;;;;;;3.65;2.47;;;;;;;3.32;100.00;92629.19;2119823;27;20091;-81
2022/05/31 02:20:59;;;;;;;2.90;2.30;;;;;;;3.23;100.00;92634.13;2128065;27;20022;-81
2022/05/31 02:22:04;;;;;;;4.63;2.65;;;;;;;3.06;100.00;92630.38;2115249;27;20062;-82
2022/05/31 02:23:05;;;;;;;4.75;2.50;;;;;;;2.95;100.00;92633.03;2114076;27;20484;-81
2022/05/31 02:24:09;;;;;;;3.88;2.42;;;;;;;3.10;100.00;92633.78;2112887;28;20072;-82
2022/05/31 02:25:10;;;;;;;8.70;2.60;;;;;;;2.99;100.00;92640.97;2113413;28;20480;-81
2022/05/31 02:26:12;;;;;;;2.70;2.35;;;;;;;2.99;100.00;92631.16;2112693;27;20383;-81
2022/05/31 02:27:14;;;;;;;3.67;2.58;;;;;;;3.00;100.00;92635.31;2121530;27;20494;-82
2022/05/31 02:28:16;;;;;;;3.42;2.30;;;;;;;3.14;100.00;92626.59;2113253;27;20149;-80
2022/05/31 02:29:23;;;;;;;2.50;2.22;;;;;;;3.07;100.00;92628.50;2116924;28;20027;-81
2022/05/31 02:30:24;;;;;;;3.63;2.40;;;;;;;3.01;100.00;92630.78;2113767;28;20116;-81
2022/05/31 02:31:26;;;;;;;5.47;2.45;;;;;;;3.08;100.00;92627.38;2112855;28;20464;-81
2022/05/31 02:32:28;;;;;;;2.10;1.90;;;;;;;3.02;100.00;92629.63;2118651;28;20020;-81
2022/05/31 02:33:30;;;;;;;4.60;2.72;;;;;;;2.92;100.00;92625.13;2113370;27;20028;-81
2022/05/31 02:34:35;;;;;;;3.75;2.30;;;;;;;2.95;100.00;92619.09;2123461;27;20027;-80
2022/05/31 02:35:36;;;;;;;2.55;2.10;;;;;;;2.96;100.00;92626.63;2121442;27;20090;-82
2022/05/31 02:36:37;;;;;;;2.92;2.10;;;;;;;3.02;100.00;92622.47;2120326;27;20049;-81
2022/05/31 02:37:39;;;;;;;3.47;2.35;;;;;;;2.93;100.00;92626.63;2121658;27;20019;-81
2022/05/31 02:38:41;;;;;;;4.97;2.30;;;;;;;2.92;100.00;92617.22;2129892;27;20467;-81
2022/05/31 02:39:42;;;;;;;4.30;2.60;;;;;;;2.88;100.00;92611.94;2113134;27;20100;-82
2022/05/31 02:40:43;;;;;;;2.53;2.33;;;;;;;2.79;100.00;92619.47;2121166;27;20059;-82
2022/05/31 02:41:46;;;;;;;3.97;2.28;;;;;;;2.84;100.00;92616.47;2121565;27;20080;-80
2022/05/31 02:42:47;;;;;;;2.95;2.20;;;;;;;2.98;100.00;92610.41;2113170;28;20046;-81
2022/05/31 02:43:49;;;;;;;5.85;2.20;;;;;;;2.99;100.00;92611.94;2121330;27;20392;-80
2022/05/31 02:44:51;;;;;;;4.60;2.58;;;;;;;3.05;100.00;92605.13;2138934;27;20795;-81
2022/05/31 02:45:53;;;;;;;3.67;2.45;;;;;;;3.14;100.00;92602.09;2121251;28;20064;-82
2022/05/31 02:46:55;;;;;;;2.97;2.22;;;;;;;2.95;100.00;92613.81;2104546;28;20388;-82
2022/05/31 02:47:57;;;;;;;4.10;2.20;;;;;;;2.98;100.00;92613.03;2100348;28;20115;-82
2022/05/31 02:48:59;;;;;;;2.92;2.30;;;;;;;2.97;100.00;92616.81;2106811;28;20120;-79
2022/05/31 02:50:02;;;;;;;3.13;2.17;;;;;;;3.00;100.00;92616.06;2112904;28;20083;-82
2022/05/31 02:51:05;;;;;;;2.42;1.92;;;;;;;2.90;100.00;92612.31;2104417;28;20029;-81
2022/05/31 02:52:07;;;;;;;4.20;2.40;;;;;;;2.83;100.00;92612.31;2096364;28;20021;-81
2022/05/31 02:53:08;;;;;;;2.40;2.20;;;;;;;2.77;100.00;92606.69;2104562;28;20030;-81
2022/05/31 02:54:11;;;;;;;2.47;2.17;;;;;;;2.76;100.00;92605.16;2111781;28;20028;-80
2022/05/31 02:55:12;;;;;;;2.63;2.33;;;;;;;2.69;100.00;92602.53;2101028;28;20017;-81
2022/05/31 02:56:13;;;;;;;2.58;2.20;;;;;;;2.71;100.00;92610.81;2104074;28;20469;-80
2022/05/31 02:57:15;;;;;;;2.88;2.55;;;;;;;2.74;100.00;92602.16;2112743;28;20028;-81
2022/05/31 02:58:16;;;;;;;2.50;2.22;;;;;;;2.64;100.00;92602.91;2117092;27;20443;-82
2022/05/31 02:59:17;;;;;;;3.65;2.67;;;;;;;2.91;100.00;92602.50;2116995;28;20030;-81
2022/05/31 03:00:19;;;;;;;5.18;2.50;;;;;;;2.86;100.00;92598.38;2099739;28;20025;-80
2022/05/31 03:01:30;;;;;;;4.13;2.15;;;;;;;2.96;100.00;92604.75;2095902;28;20060;-80
2022/05/31 03:02:34;;;;;;;3.60;2.40;;;;;;;2.93;100.00;92600.97;2105521;28;20020;-81
2022/05/31 03:03:35;;;;;;;2.97;2.55;;;;;;;2.85;100.00;92598.72;2096876;28;20027;-81
2022/05/31 03:04:36;;;;;;;2.35;1.98;;;;;;;2.78;100.00;92602.16;2098607;28;20798;-81
2022/05/31 03:05:37;;;;;;;2.45;2.17;;;;;;;2.75;100.00;92601.00;2095676;28;20059;-80
2022/05/31 03:06:40;;;;;;;3.70;2.20;;;;;;;2.90;100.00;92603.66;2096085;28;20021;-81
2022/05/31 03:07:41;;;;;;;3.35;2.10;;;;;;;2.93;100.00;92602.88;2104932;28;20035;-80
2022/05/31 03:08:41;;;;;;;3.22;2.42;;;;;;;2.93;100.00;92600.97;2104272;28;20024;-80
2022/05/31 03:09:44;;;;;;;4.68;2.15;;;;;;;2.83;100.00;92601.00;2095780;28;20112;-81
2022/05/31 03:11:08;;;;;;;3.25;2.15;;;;;;;2.73;100.00;92603.28;2096012;28;20037;-80
2022/05/31 03:12:17;;;;;;;2.58;2.38;;;;;;;2.87;100.00;92599.88;2110825;28;20022;-81
2022/05/31 03:13:24;;;;;;;3.67;2.35;;;;;;;2.72;100.00;92608.91;2105969;28;20269;-81
2022/05/31 03:14:35;;;;;;;4.55;2.38;;;;;;;2.78;100.00;92604.78;2114394;27;20024;-80
2022/05/31 03:15:38;;;;;;;2.40;2.20;;;;;;;2.72;100.00;92606.28;2113976;28;20019;-81
2022/05/31 03:16:44;;;;;;;3.08;2.05;;;;;;;2.74;100.00;92602.16;2113189;27;20047;-80
2022/05/31 03:17:51;;;;;;;5.10;2.20;;;;;;;2.70;100.00;92604.03;2113163;28;20110;-82
2022/05/31 03:19:02;;;;;;;2.85;2.00;;;;;;;2.66;100.00;92600.63;2105888;28;20477;-79
2022/05/31 03:20:15;;;;;;;2.85;2.30;;;;;;;2.67;100.00;92596.88;2112599;28;20460;-81
2022/05/31 03:21:21;;;;;;;3.67;2.38;;;;;;;2.67;100.00;92604.03;2118637;27;20019;-81
2022/05/31 03:22:29;;;;;;;3.80;2.70;;;;;;;2.80;100.00;92601.75;2120915;28;20019;-81
2022/05/31 03:23:39;;;;;;;4.97;2.92;;;;;;;3.07;100.00;92615.28;2114541;27;20377;-80
2022/05/31 03:24:45;;;;;;;3.47;2.95;;;;;;;2.98;100.00;92618.31;2117823;27;20469;-81
2022/05/31 03:25:48;;;;;;;3.83;2.42;;;;;;;3.14;100.00;92618.69;2107337;28;20039;-82
2022/05/31 03:26:54;;;;;;;2.92;2.42;;;;;;;2.90;100.00;92614.22;2099383;28;20634;-81
2022/05/31 03:27:59;;;;;;;4.15;2.45;;;;;;;2.85;100.00;92617.22;2099828;28;20073;-82
2022/05/31 03:29:02;;;;;;;2.55;2.30;;;;;;;2.78;100.00;92616.09;2100042;28;20024;-83
2022/05/31 03:30:05;;;;;;;3.00;2.35;;;;;;;2.68;100.00;92618.75;2098989;28;20047;-82
2022/05/31 03:31:07;;;;;;;4.20;2.42;;;;;;;2.65;100.00;92614.22;2115328;27;20057;-80
2022/05/31 03:32:15;;;;;;;3.85;2.08;;;;;;;2.67;100.00;92614.59;2115268;28;20265;-80
2022/05/31 03:33:16;;;;;;;3.30;2.20;;;;;;;2.69;100.00;92613.09;2105389;28;20082;-81
2022/05/31 03:34:17;;;;;;;5.38;2.50;;;;;;;2.81;100.00;92614.59;2105931;28;20028;-80
2022/05/31 03:35:19;;;;;;;4.18;2.60;;;;;;;2.88;100.00;92616.47;2106706;28;20522;-80
2022/05/31 03:36:20;;;;;;;4.60;2.40;;;;;;;2.88;100.00;92613.81;2098368;28;20115;-82
2022/05/31 03:37:21;;;;;;;3.42;2.30;;;;;;;2.92;100.00;92614.56;2090158;28;20029;-80
2022/05/31 03:38:22;;;;;;;6.70;2.35;;;;;;;2.89;100.00;92613.44;2093198;28;20020;-83
2022/05/31 03:39:23;;;;;;;5.40;2.75;;;;;;;2.77;100.00;92619.13;2098333;28;20021;-81
2022/05/31 03:41:44;;;;;;;3.15;2.40;;;;;;;2.78;100.00;92617.97;2122308;27;20033;-81
2022/05/31 03:42:45;;;;;;;4.60;2.17;;;;;;;2.74;100.00;92619.88;2106723;28;20420;-81
2022/05/31 03:43:46;;;;;;;2.67;2.33;;;;;;;2.83;100.00;92619.47;2106749;28;20060;-80
2022/05/31 03:44:47;;;;;;;3.20;2.53;;;;;;;2.88;100.00;92624.38;2106733;28;20484;-79
2022/05/31 03:45:48;;;;;;;4.13;2.55;;;;;;;2.88;100.00;92622.50;2098296;28;20020;-81
2022/05/31 03:46:50;;;;;;;4.72;2.42;;;;;;;2.97;100.00;92627.38;2115159;28;20677;-80
2022/05/31 03:47:52;;;;;;;4.53;2.30;;;;;;;2.97;100.00;92625.50;2106737;28;20427;-80
2022/05/31 03:48:54;;;;;;;4.05;2.70;;;;;;;2.92;100.00;92619.84;2106902;27;20026;-81
2022/05/31 03:49:57;;;;;;;4.38;2.45;;;;;;;2.93;100.00;92608.91;2113515;28;20027;-80
2022/05/31 03:51:04;;;;;;;5.35;3.00;;;;;;;3.03;100.00;92616.06;2099961;28;20107;-80
2022/05/31 03:52:06;;;;;;;5.13;3.00;;;;;;;3.04;100.00;92616.81;2097140;28;20073;-81
2022/05/31 03:53:14;;;;;;;5.78;2.38;;;;;;;3.08;100.00;92609.66;2106809;28;20488;-80
2022/05/31 03:54:15;;;;;;;5.47;2.45;;;;;;;3.17;100.00;92607.38;2114798;28;20023;-81
2022/05/31 03:55:16;;;;;;;4.80;2.60;;;;;;;3.00;100.00;92614.19;2095349;28;20055;-81
2022/05/31 03:56:17;;;;;;;4.05;2.53;;;;;;;2.99;100.00;92614.56;2114262;28;20026;-81
2022/05/31 03:57:20;;;;;;;5.05;2.58;;;;;;;2.87;100.00;92612.31;2114362;28;20027;-81
2022/05/31 03:58:22;;;;;;;2.75;2.40;;;;;;;2.90;100.00;92614.97;2106357;27;20111;-80
2022/05/31 03:59:23;;;;;;;4.72;2.70;;;;;;;2.91;100.00;92607.78;2114312;28;20158;-81
2022/05/31 04:00:24;;;;;;;4.50;2.33;;;;;;;2.94;100.00;92607.78;2113430;28;20480;-81
2022/05/31 04:01:25;;;;;;;3.47;2.35;;;;;;;2.97;100.00;92601.72;2104838;28;20429;-80
2022/05/31 04:02:26;;;;;;;2.60;2.40;;;;;;;3.09;100.00;92605.88;2115967;27;20072;-81
2022/05/31 04:03:28;;;;;;;2.58;2.38;;;;;;;3.01;100.00;92602.47;2101837;28;20059;-82
2022/05/31 04:04:28;;;;;;;4.03;2.10;;;;;;;3.16;100.00;92605.09;2106373;28;20155;-81
2022/05/31 04:05:29;;;;;;;3.50;2.40;;;;;;;3.43;100.00;92605.41;2114949;28;20027;-80
2022/05/31 04:06:31;;;;;;;2.80;2.33;;;;;;;3.35;100.00;92599.38;2106513;28;20416;-82
2022/05/31 04:07:33;;;;;;;5.15;2.75;;;;;;;3.38;100.00;92598.63;2106731;28;20480;-81
2022/05/31 04:08:34;;;;;;;2.88;1.98;;;;;;;3.32;100.00;92605.44;2098095;28;20024;-80
2022/05/31 04:09:35;;;;;;;3.35;2.20;;;;;;;3.31;100.00;92598.66;2090016;28;20035;-81
2022/05/31 04:10:36;;;;;;;2.50;2.20;;;;;;;3.27;100.00;92595.25;2098164;28;20028;-81
2022/05/31 04:11:37;;;;;;;3.63;2.42;;;;;;;3.30;100.00;92601.69;2101170;28;20106;-81
2022/05/31 04:12:39;;;;;;;4.47;2.35;;;;;;;3.33;100.00;92599.00;2114675;28;20617;-81
2022/05/31 04:14:01;;;;;;;4.13;2.20;;;;;;;3.36;100.00;92600.13;2106433;28;20028;-82
2022/05/31 04:15:05;;;;;;;3.47;2.35;;;;;;;3.38;100.00;92601.28;2104526;28;20058;-82
2022/05/31 04:16:11;;;;;;;3.75;2.53;;;;;;;3.54;100.00;92606.88;2098273;28;20487;-81
2022/05/31 04:17:12;;;;;;;5.05;2.40;;;;;;;3.62;100.00;92604.94;2099615;28;20060;-82
2022/05/31 04:18:13;;;;;;;4.15;2.10;;;;;;;3.74;100.00;92601.13;2098228;28;20504;-81
2022/05/31 04:19:14;;;;;;;3.67;2.28;;;;;;;3.77;100.00;92606.38;2098143;28;20054;-80
2022/05/31 04:20:15;;;;;;;2.67;2.10;;;;;;;3.82;100.00;92610.53;2106555;28;20853;-80
2022/05/31 04:21:17;;;;;;;3.00;2.40;;;;;;;3.84;100.00;92610.16;2106378;28;20110;-80
2022/05/31 04:22:18;;;;;;;5.72;2.33;;;;;;;3.81;100.00;92603.72;2106321;28;20031;-81
2022/05/31 04:24:39;;;;;;;5.28;2.30;;;;;;;4.01;100.00;92598.72;2116444;27;20136;-80
2022/05/31 04:25:41;;;;;;;3.55;2.53;;;;;;;4.02;100.00;92600.97;2106282;28;20028;-81
2022/05/31 04:26:45;;;;;;;5.20;2.40;;;;;;;4.05;100.00;92607.41;2106853;27;20031;-80
2022/05/31 04:27:49;;;;;;;4.10;2.35;;;;;;;4.08;100.00;92600.56;2102480;28;20036;-81
2022/05/31 04:28:51;;;;;;;5.03;2.40;;;;;;;4.15;100.00;92605.81;2106803;28;20023;-80
2022/05/31 04:29:53;;;;;;;4.63;2.40;;;;;;;4.35;100.00;92598.91;2114786;28;20460;-80
2022/05/31 04:30:54;;;;;;;3.75;2.33;;;;;;;4.29;100.00;92600.44;2106177;28;20076;-80
2022/05/31 04:31:56;;;;;;;3.35;2.00;;;;;;;4.26;100.00;92594.06;2099346;28;20024;-79
2022/05/31 04:32:58;;;;;;;3.65;2.10;;;;;;;4.25;100.00;92602.34;2114351;27;20016;-80
2022/05/31 04:34:00;;;;;;;2.63;2.42;;;;;;;4.24;100.00;92600.84;2106453;28;20031;-80
2022/05/31 04:35:01;;;;;;;4.00;2.22;;;;;;;4.40;100.00;92601.13;2106701;27;20067;-82
2022/05/31 04:36:12;;;;;;;5.50;2.40;;;;;;;4.34;100.00;92604.56;2105757;28;20020;-80
2022/05/31 04:37:13;;;;;;;;;;;;;;;4.39;100.00;92610.22;2107632;28;20077;-81
2022/05/31 04:38:14;;;;;;;2.13;1.60;;;;;;;4.46;100.00;92602.22;2106250;28;20384;-81
2022/05/31 04:39:15;;;;;;;2.30;1.60;;;;;;;4.42;100.00;92612.06;2106436;28;20548;-80
2022/05/31 04:40:16;;;;;;;3.00;1.83;;;;;;;4.49;100.00;92598.81;2106296;28;20024;-81
2022/05/31 04:41:24;;;;;;;2.97;1.92;;;;;;;4.59;100.00;92602.50;2106102;28;20495;-80
2022/05/31 04:42:25;;;;;;;3.92;1.77;;;;;;;4.73;100.00;92601.63;2107023;28;20032;-80
2022/05/31 04:43:26;;;;;;;2.17;1.90;;;;;;;4.70;100.00;92605.09;2106179;28;20039;-80
2022/05/31 04:44:29;;;;;;;2.65;1.70;;;;;;;4.77;100.00;92605.00;2114720;28;20026;-81
2022/05/31 04:45:30;;;;;;;3.35;2.20;;;;;;;4.69;100.00;92600.91;2123079;27;20446;-82
2022/05/31 04:46:33;;;;;;;2.78;2.30;;;;;;;4.78;100.00;92606.50;2114318;28;20077;-80
2022/05/31 04:47:34;;;;;;;2.05;1.73;;;;;;;4.84;100.00;92601.56;2106373;28;20390;-80
2022/05/31 04:48:36;;;;;;;3.53;1.98;;;;;;;4.86;100.00;92605.31;2106384;28;20032;-80
2022/05/31 04:49:37;;;;;;;2.45;1.80;;;;;;;4.99;100.00;92610.88;2114651;27;20395;-79
2022/05/31 04:50:38;;;;;;;3.17;2.17;;;;;;;5.04;100.00;92610.44;2099676;28;20030;-79
2022/05/31 04:51:39;;;;;;;3.10;2.08;;;;;;;4.98;100.00;92612.78;2096354;28;20117;-80
2022/05/31 04:52:40;;;;;;;3.78;1.98;;;;;;;5.06;100.00;92610.81;2086292;28;20024;-81
2022/05/31 04:53:41;;;;;;;4.90;1.98;;;;;;;5.22;100.00;92612.91;2088002;28;20032;-81
2022/05/31 04:54:44;;;;;;;3.03;1.90;;;;;;;5.14;100.00;92614.16;2098967;27;20020;-81
2022/05/31 04:55:45;;;;;;;2.20;1.98;;;;;;;5.21;100.00;92614.06;2112133;28;20548;-80
2022/05/31 04:56:52;;;;;;;3.42;2.00;;;;;;;5.21;100.00;92616.72;2101094;28;20028;-82
2022/05/31 04:57:54;;;;;;;3.13;2.00;;;;;;;5.41;100.00;92617.66;2107548;28;20071;-82
2022/05/31 04:58:55;;;;;;;2.60;2.20;;;;;;;5.30;100.00;92611.72;2088272;28;20045;-81
2022/05/31 04:59:56;;;;;;;3.05;1.85;;;;;;;5.32;100.00;92598.84;2088437;28;20550;-81
2022/05/31 05:01:01;;;;;;;3.10;1.92;;;;;;;5.35;100.00;92602.56;2096663;28;20051;-82
2022/05/31 05:02:03;;;;;;;4.75;2.28;;;;;;;5.33;100.00;92605.63;2099411;28;20020;-80
2022/05/31 05:03:04;;;;;;;3.53;2.15;;;;;;;5.36;100.00;92604.09;2096202;28;20865;-81
2022/05/31 05:04:05;;;;;;;2.45;2.20;;;;;;;5.33;100.00;92608.28;2110830;28;20496;-80
2022/05/31 05:05:07;;;;;;;3.70;2.15;;;;;;;5.26;100.00;92605.69;2096441;28;20031;-80
2022/05/31 05:06:10;;;;;;;2.65;2.00;;;;;;;5.33;100.00;92605.63;2096350;28;20140;-81
2022/05/31 05:07:12;;;;;;;3.30;2.20;;;;;;;5.28;100.00;92606.06;2096952;28;20035;-81
2022/05/31 05:08:13;;;;;;;4.43;2.00;;;;;;;5.45;100.00;92602.47;2099867;28;20126;-82